createdAt,value
2018-01-02T00:01:57.869Z,74.64
2018-01-02T00:04:26.148Z,74.37
2018-01-02T00:06:54.431Z,74.38
2018-01-02T00:09:22.686Z,74.59
2018-01-02T00:11:50.954Z,75.01
2018-01-02T00:14:19.254Z,74.78
2018-01-02T00:16:47.507Z,74.84
2018-01-02T00:19:15.832Z,74.88
2018-01-02T00:21:44.090Z,75.02
2018-01-02T00:24:12.376Z,75.17
2018-01-02T00:26:40.641Z,75.03
2018-01-02T00:29:08.906Z,75.08
2018-01-02T00:31:37.150Z,74.90
2018-01-02T00:34:05.457Z,74.88
2018-01-02T00:36:33.754Z,74.48
2018-01-02T00:39:02.042Z,74.49
2018-01-02T00:41:30.303Z,74.25
2018-01-02T00:43:58.585Z,73.84
2018-01-02T00:46:26.845Z,73.78
2018-01-02T00:48:55.097Z,73.81
2018-01-02T00:51:23.383Z,74.10
2018-01-02T00:53:51.660Z,74.27
2018-01-02T00:56:19.934Z,74.34
2018-01-02T00:58:48.171Z,74.03
2018-01-02T01:01:16.464Z,73.57
2018-01-02T01:03:44.737Z,73.32
2018-01-02T01:06:13.016Z,73.55
2018-01-02T01:08:41.308Z,73.60
2018-01-02T01:11:10.407Z,73.53
2018-01-02T01:13:38.680Z,73.78
2018-01-02T01:16:06.913Z,74.00
2018-01-02T01:18:35.206Z,74.22
2018-01-02T01:21:03.464Z,74.56
2018-01-02T01:23:31.754Z,75.07
2018-01-02T01:26:00.029Z,75.10
2018-01-02T01:28:28.321Z,75.42
2018-01-02T01:30:56.577Z,75.69
2018-01-02T01:33:24.868Z,75.63
2018-01-02T01:35:53.173Z,75.55
2018-01-02T01:38:21.451Z,75.60
2018-01-02T01:40:49.733Z,75.85
2018-01-02T01:43:18.004Z,76.06
2018-01-02T01:45:46.293Z,75.98
2018-01-02T01:48:15.129Z,76.09
2018-01-02T01:50:43.399Z,76.20
2018-01-02T01:53:11.651Z,76.20
2018-01-02T01:55:39.929Z,76.17
2018-01-02T01:58:08.197Z,76.36
2018-01-02T02:00:36.473Z,76.57
2018-01-02T02:03:04.746Z,76.96
2018-01-02T02:05:33.057Z,77.07
2018-01-02T02:08:01.306Z,77.31
2018-01-02T02:10:29.681Z,77.29
2018-01-02T02:12:57.962Z,77.40
2018-01-02T02:15:26.373Z,77.43
2018-01-02T02:17:54.684Z,77.76
2018-01-02T02:20:22.929Z,77.75
2018-01-02T02:22:51.251Z,78.12
2018-01-02T02:25:19.509Z,77.97
2018-01-02T02:27:47.827Z,77.65
2018-01-02T02:30:16.118Z,77.72
2018-01-02T02:32:44.447Z,77.45
2018-01-02T02:35:13.123Z,77.47
2018-01-02T02:37:41.398Z,77.46
2018-01-02T02:40:09.686Z,76.92
2018-01-02T02:42:37.996Z,77.12
2018-01-02T02:45:06.239Z,77.12
2018-01-02T02:47:34.501Z,77.62
2018-01-02T02:50:02.764Z,77.70
2018-01-02T02:52:31.087Z,78.25
2018-01-02T02:54:59.337Z,78.41
2018-01-02T02:57:27.584Z,78.36
2018-01-02T02:59:55.859Z,78.44
2018-01-02T03:02:24.159Z,78.41
2018-01-02T03:04:52.451Z,78.57
2018-01-02T03:07:20.711Z,78.61
2018-01-02T03:09:49.007Z,78.70
2018-01-02T03:12:17.284Z,78.53
2018-01-02T03:14:46.467Z,78.02
2018-01-02T03:17:14.746Z,76.92
2018-01-02T03:19:43.021Z,76.75
2018-01-02T03:22:11.410Z,76.74
2018-01-02T03:24:39.675Z,77.11
2018-01-02T03:27:07.955Z,77.18
2018-01-02T03:29:36.238Z,77.04
2018-01-02T03:32:04.518Z,76.86
2018-01-02T03:34:32.791Z,76.97
2018-01-02T03:37:01.067Z,76.75
2018-01-02T03:39:29.349Z,76.53
2018-01-02T03:41:57.624Z,76.46
2018-01-02T03:44:25.910Z,76.14
2018-01-02T03:46:54.157Z,76.44
2018-01-02T03:49:22.465Z,76.05
2018-01-02T03:51:50.740Z,76.27
2018-01-02T03:54:19.015Z,75.99
2018-01-02T03:56:47.274Z,75.63
2018-01-02T03:59:15.563Z,75.96
2018-01-02T04:01:43.840Z,76.12
2018-01-02T04:04:12.124Z,75.72
2018-01-02T04:06:40.404Z,75.98
2018-01-02T04:09:08.683Z,76.22
2018-01-02T04:11:36.962Z,76.62
2018-01-02T04:14:05.263Z,76.60
2018-01-02T04:16:33.503Z,76.72
2018-01-02T04:19:01.783Z,76.16
2018-01-02T04:21:30.077Z,76.18
2018-01-02T04:23:58.371Z,76.22
2018-01-02T04:26:26.619Z,76.28
2018-01-02T04:28:54.895Z,76.29
2018-01-02T04:31:23.163Z,76.34
2018-01-02T04:33:51.442Z,76.53
2018-01-02T04:36:19.687Z,77.03
2018-01-02T04:38:47.964Z,77.53
2018-01-02T04:41:16.260Z,77.54
2018-01-02T04:43:44.492Z,77.67
2018-01-02T04:46:12.791Z,77.19
2018-01-02T04:48:41.026Z,77.09
2018-01-02T04:51:09.348Z,76.86
2018-01-02T04:53:37.577Z,77.04
2018-01-02T04:56:05.991Z,76.84
2018-01-02T04:58:34.269Z,77.24
2018-01-02T05:01:02.558Z,76.91
2018-01-02T05:03:30.835Z,77.10
2018-01-02T05:05:59.919Z,76.79
2018-01-02T05:08:28.186Z,76.32
2018-01-02T05:10:56.470Z,76.41
2018-01-02T05:13:24.747Z,76.15
2018-01-02T05:15:53.023Z,75.84
2018-01-02T05:18:21.324Z,75.87
2018-01-02T05:20:49.575Z,75.89
2018-01-02T05:23:17.854Z,75.66
2018-01-02T05:25:46.119Z,75.74
2018-01-02T05:28:14.406Z,75.50
2018-01-02T05:30:42.658Z,75.68
2018-01-02T05:33:10.957Z,75.62
2018-01-02T05:35:39.210Z,75.55
2018-01-02T05:38:07.483Z,75.75
2018-01-02T05:40:35.756Z,76.07
2018-01-02T05:43:04.007Z,75.93
2018-01-02T05:45:32.277Z,75.92
2018-01-02T05:48:00.524Z,75.52
2018-01-02T05:50:28.802Z,74.96
2018-01-02T05:52:57.043Z,74.66
2018-01-02T05:55:25.346Z,74.69
2018-01-02T05:57:53.749Z,74.21
2018-01-02T06:00:21.998Z,74.20
2018-01-02T06:02:50.248Z,74.24
2018-01-02T06:05:18.525Z,74.32
2018-01-02T06:07:46.791Z,74.01
2018-01-02T06:10:15.037Z,73.95
2018-01-02T06:12:43.462Z,73.62
2018-01-02T06:15:11.686Z,73.71
2018-01-02T06:17:39.956Z,73.59
2018-01-02T06:20:08.251Z,73.49
2018-01-02T06:22:36.542Z,73.37
2018-01-02T06:25:04.836Z,73.77
2018-01-02T06:27:33.104Z,73.56
2018-01-02T06:30:01.366Z,73.77
2018-01-02T06:32:29.668Z,73.87
2018-01-02T06:34:57.911Z,74.13
2018-01-02T06:37:26.188Z,74.45
2018-01-02T06:39:54.505Z,74.53
2018-01-02T06:42:22.783Z,74.79
2018-01-02T06:44:51.066Z,74.58
2018-01-02T06:47:19.318Z,74.41
2018-01-02T06:49:47.590Z,74.77
2018-01-02T06:52:15.916Z,74.96
2018-01-02T06:54:44.291Z,74.75
2018-01-02T06:57:12.787Z,74.77
2018-01-02T06:59:41.055Z,74.87
2018-01-02T07:02:09.321Z,74.91
2018-01-02T07:04:37.583Z,74.44
2018-01-02T07:07:05.883Z,74.72
2018-01-02T07:09:34.149Z,74.31
2018-01-02T07:12:02.431Z,74.67
2018-01-02T07:14:30.686Z,74.13
2018-01-02T07:16:58.967Z,74.33
2018-01-02T07:19:27.198Z,74.67
2018-01-02T07:21:55.716Z,74.57
2018-01-02T07:24:24.095Z,74.33
2018-01-02T07:26:52.470Z,73.95
2018-01-02T07:29:20.723Z,74.02
2018-01-02T07:31:48.995Z,73.81
2018-01-02T07:34:17.279Z,74.21
2018-01-02T07:36:45.597Z,74.23
2018-01-02T07:39:13.822Z,74.05
2018-01-02T07:41:42.140Z,74.45
2018-01-02T07:44:10.507Z,74.59
2018-01-02T07:46:38.805Z,74.34
2018-01-02T07:49:07.062Z,74.22
2018-01-02T07:51:35.338Z,74.29
2018-01-02T07:54:03.614Z,74.17
2018-01-02T07:56:31.895Z,74.16
2018-01-02T07:59:00.175Z,73.96
2018-01-02T08:01:28.463Z,74.03
2018-01-02T08:03:56.847Z,74.07
2018-01-02T08:06:25.064Z,73.58
2018-01-02T08:08:53.355Z,73.92
2018-01-02T08:11:22.387Z,76.62
2018-01-02T08:13:50.661Z,76.87
2018-01-02T08:16:18.947Z,77.37
2018-01-02T08:18:47.222Z,77.83
2018-01-02T08:21:15.521Z,78.34
2018-01-02T08:23:44.059Z,79.07
2018-01-02T08:26:12.955Z,79.60
2018-01-02T08:28:41.234Z,79.74
2018-01-02T08:31:09.511Z,78.88
2018-01-02T08:33:38.696Z,78.94
2018-01-02T08:36:06.995Z,78.39
2018-01-02T08:38:35.241Z,78.07
2018-01-02T08:41:03.539Z,77.55
2018-01-02T08:43:31.804Z,76.89
2018-01-02T08:46:00.074Z,75.60
2018-01-02T08:48:28.351Z,75.58
2018-01-02T08:50:56.620Z,75.16
2018-01-02T08:53:25.209Z,74.68
2018-01-02T08:55:53.508Z,74.46
2018-01-02T08:58:21.797Z,74.37
2018-01-02T09:00:50.981Z,74.20
2018-01-02T09:03:19.256Z,74.24
2018-01-02T09:05:48.516Z,74.94
2018-01-02T09:08:16.762Z,75.09
2018-01-02T09:10:45.018Z,74.80
2018-01-02T09:13:17.156Z,74.26
2018-01-02T09:15:45.450Z,73.78
2018-01-02T09:18:13.741Z,73.87
2018-01-02T09:20:41.993Z,73.67
2018-01-02T09:23:10.291Z,73.42
2018-01-02T09:25:38.538Z,73.48
2018-01-02T09:28:06.819Z,73.92
2018-01-02T09:30:35.188Z,74.35
2018-01-02T09:33:03.439Z,74.28
2018-01-02T09:35:31.696Z,73.66
2018-01-02T09:37:59.952Z,73.77
2018-01-02T09:40:28.259Z,73.70
2018-01-02T09:42:56.523Z,72.41
2018-01-02T09:45:24.792Z,72.30
2018-01-02T09:47:53.143Z,72.28
2018-01-02T09:50:21.515Z,72.37
2018-01-02T09:52:49.820Z,72.52
2018-01-02T09:55:18.969Z,71.93
2018-01-02T09:57:47.246Z,72.57
2018-01-02T10:00:15.492Z,72.08
2018-01-02T10:02:43.835Z,71.72
2018-01-02T10:05:12.088Z,71.76
2018-01-02T10:07:40.373Z,71.88
2018-01-02T10:10:08.790Z,71.00
2018-01-02T10:12:37.071Z,70.13
2018-01-02T10:15:05.314Z,70.66
2018-01-02T10:17:33.615Z,69.76
2018-01-02T10:20:01.913Z,70.58
2018-01-02T10:22:30.168Z,69.46
2018-01-02T10:24:58.494Z,69.59
2018-01-02T10:27:26.848Z,68.96
2018-01-02T10:29:55.114Z,69.12
2018-01-02T10:32:23.357Z,69.03
2018-01-02T10:34:51.650Z,68.46
2018-01-02T10:37:19.935Z,68.34
2018-01-02T10:39:48.247Z,68.06
2018-01-02T10:42:16.569Z,68.14
2018-01-02T10:44:44.874Z,67.77
2018-01-02T10:47:13.120Z,68.09
2018-01-02T10:49:41.417Z,68.39
2018-01-02T10:52:09.748Z,68.11
2018-01-02T10:54:38.021Z,68.17
2018-01-02T10:57:06.307Z,68.16
2018-01-02T10:59:34.578Z,68.20
2018-01-02T11:02:02.882Z,69.08
2018-01-02T11:04:31.171Z,68.29
2018-01-02T11:06:59.470Z,68.85
2018-01-02T11:09:27.775Z,69.10
2018-01-02T11:11:58.912Z,69.01
2018-01-02T11:14:32.839Z,68.37
2018-01-02T11:17:01.108Z,68.16
2018-01-02T11:19:29.395Z,69.07
2018-01-02T11:21:57.943Z,68.95
2018-01-02T11:24:26.201Z,68.99
2018-01-02T11:26:55.069Z,68.87
2018-01-02T11:29:23.319Z,68.69
2018-01-02T11:31:51.668Z,68.32
2018-01-02T11:34:19.927Z,68.62
2018-01-02T11:36:48.308Z,68.90
2018-01-02T11:39:16.713Z,69.26
2018-01-02T11:41:44.938Z,68.81
2018-01-02T11:44:13.218Z,69.12
2018-01-02T11:46:41.541Z,69.60
2018-01-02T11:49:10.748Z,69.47
2018-01-02T11:51:39.116Z,69.64
2018-01-02T11:54:07.402Z,69.31
2018-01-02T11:56:35.980Z,69.08
2018-01-02T11:59:04.386Z,68.38
2018-01-02T12:01:32.630Z,68.47
2018-01-02T12:04:01.680Z,69.05
2018-01-02T12:06:30.656Z,68.96
2018-01-02T12:08:58.908Z,68.77
2018-01-02T12:11:27.232Z,68.46
2018-01-02T12:13:55.509Z,68.97
2018-01-02T12:16:23.792Z,69.47
2018-01-02T12:18:58.906Z,69.33
2018-01-02T12:21:27.534Z,69.37
2018-01-02T12:23:55.810Z,69.06
2018-01-02T12:26:24.080Z,68.32
2018-01-02T12:28:52.362Z,67.80
2018-01-02T12:31:20.654Z,67.73
2018-01-02T12:33:48.927Z,66.82
2018-01-02T12:36:17.199Z,66.60
2018-01-02T12:38:45.542Z,66.70
2018-01-02T12:41:13.786Z,67.09
2018-01-02T12:43:42.098Z,66.56
2018-01-02T12:46:10.398Z,66.14
2018-01-02T12:48:38.698Z,66.23
2018-01-02T12:51:07.471Z,66.77
2018-01-02T12:53:35.894Z,66.92
2018-01-02T12:56:04.203Z,66.62
2018-01-02T12:58:32.484Z,66.92
2018-01-02T13:01:00.778Z,66.78
2018-01-02T13:03:29.028Z,67.06
2018-01-02T13:05:57.337Z,66.70
2018-01-02T13:08:25.616Z,66.53
2018-01-02T13:10:53.950Z,66.36
2018-01-02T13:13:22.207Z,66.52
2018-01-02T13:15:50.503Z,65.94
2018-01-02T13:18:18.844Z,65.98
2018-01-02T13:20:47.132Z,65.96
2018-01-02T13:25:49.041Z,64.56
2018-01-02T13:28:17.351Z,64.64
2018-01-02T13:30:45.717Z,64.59
2018-01-02T13:33:14.096Z,64.95
2018-01-02T13:35:42.718Z,65.08
2018-01-02T13:38:10.995Z,65.56
2018-01-02T13:40:39.342Z,65.11
2018-01-02T13:43:07.643Z,64.54
2018-01-02T13:45:35.941Z,64.67
2018-01-02T13:48:04.315Z,65.34
2018-01-02T13:50:32.590Z,64.99
2018-01-02T13:53:00.899Z,64.79
2018-01-02T13:55:29.161Z,64.49
2018-01-02T13:57:57.443Z,63.99
2018-01-02T14:00:25.714Z,64.15
2018-01-02T14:02:54.027Z,64.15
2018-01-02T14:05:22.393Z,63.96
2018-01-02T14:07:50.748Z,63.71
2018-01-02T14:10:19.041Z,64.21
2018-01-02T14:12:48.433Z,63.98
2018-01-02T14:15:17.800Z,64.01
2018-01-02T14:17:46.214Z,64.10
2018-01-02T14:20:14.706Z,63.81
2018-01-02T14:22:43.142Z,63.96
2018-01-02T14:25:11.444Z,64.04
2018-01-02T14:27:40.441Z,64.44
2018-01-02T14:30:08.732Z,64.82
2018-01-02T14:32:37.022Z,65.16
2018-01-02T14:35:05.319Z,65.62
2018-01-02T14:37:33.649Z,65.70
2018-01-02T14:40:01.931Z,66.02
2018-01-02T14:42:30.217Z,66.26
2018-01-02T14:44:58.536Z,66.36
2018-01-02T14:47:26.854Z,66.23
2018-01-02T14:49:55.878Z,66.10
2018-01-02T14:52:24.159Z,66.35
2018-01-02T14:54:52.573Z,66.48
2018-01-02T14:57:21.605Z,66.55
2018-01-02T14:59:49.882Z,66.45
2018-01-02T15:02:18.220Z,66.55
2018-01-02T15:04:46.652Z,66.70
2018-01-02T15:07:15.842Z,66.54
2018-01-02T15:09:44.144Z,66.52
2018-01-02T15:12:12.418Z,66.56
2018-01-02T15:14:40.780Z,66.38
2018-01-02T15:17:09.169Z,66.87
2018-01-02T15:19:37.472Z,66.71
2018-01-02T15:22:05.733Z,67.10
2018-01-02T15:24:34.504Z,67.19
2018-01-02T15:27:03.040Z,67.70
2018-01-02T15:29:31.318Z,67.64
2018-01-02T15:31:59.579Z,67.72
2018-01-02T15:34:27.919Z,67.87
2018-01-02T15:36:56.196Z,68.13
2018-01-02T15:39:24.472Z,68.21
2018-01-02T15:41:52.756Z,68.30
2018-01-02T15:44:21.050Z,68.50
2018-01-02T15:46:49.629Z,68.69
2018-01-02T15:49:17.889Z,68.90
2018-01-02T15:51:46.197Z,68.88
2018-01-02T15:54:14.439Z,68.95
2018-01-02T15:56:42.751Z,69.53
2018-01-02T15:59:11.015Z,69.71
2018-01-02T16:01:40.262Z,70.00
2018-01-02T16:04:08.565Z,70.36
2018-01-02T16:06:36.859Z,70.32
2018-01-02T16:09:05.226Z,70.33
2018-01-02T16:11:33.577Z,70.90
2018-01-02T16:14:01.890Z,71.30
2018-01-02T16:16:31.563Z,71.44
2018-01-02T16:18:59.865Z,71.54
2018-01-02T16:21:28.220Z,71.40
2018-01-02T16:23:56.537Z,71.19
2018-01-02T16:26:25.325Z,71.17
2018-01-02T16:28:53.769Z,71.27
2018-01-02T16:31:22.006Z,71.74
2018-01-02T16:33:50.304Z,71.68
2018-01-02T16:36:18.628Z,71.70
2018-01-02T16:38:46.908Z,71.95
2018-01-02T16:41:15.208Z,72.02
2018-01-02T16:43:43.555Z,71.79
2018-01-02T16:46:11.975Z,72.04
2018-01-02T16:48:40.758Z,72.08
2018-01-02T16:51:09.018Z,72.17
2018-01-02T16:53:37.287Z,71.77
2018-01-02T16:56:05.567Z,72.23
2018-01-02T16:58:33.840Z,72.21
2018-01-02T17:01:02.135Z,71.97
2018-01-02T17:03:30.391Z,71.97
2018-01-02T17:05:58.699Z,72.19
2018-01-02T17:08:27.083Z,72.54
2018-01-02T17:10:55.333Z,72.60
2018-01-02T17:13:23.657Z,72.62
2018-01-02T17:15:51.933Z,72.64
2018-01-02T17:18:20.246Z,72.63
2018-01-02T17:20:48.555Z,72.94
2018-01-02T17:23:16.839Z,72.75
2018-01-02T17:25:45.170Z,72.66
2018-01-02T17:28:13.519Z,72.19
2018-01-02T17:30:41.834Z,72.02
2018-01-02T17:33:10.137Z,72.24
2018-01-02T17:35:38.415Z,72.11
2018-01-02T17:38:06.719Z,72.40
2018-01-02T17:40:34.938Z,72.42
2018-01-02T17:43:03.237Z,72.39
2018-01-02T17:45:31.564Z,72.29
2018-01-02T17:47:59.863Z,72.27
2018-01-02T17:50:28.922Z,72.47
2018-01-02T17:52:57.185Z,72.28
2018-01-02T17:55:25.555Z,72.44
2018-01-02T17:57:53.828Z,72.38
2018-01-02T18:05:16.771Z,71.94
2018-01-02T18:07:45.036Z,71.99
2018-01-02T18:10:13.360Z,72.26
2018-01-02T18:12:41.616Z,72.69
2018-01-02T18:15:10.630Z,72.83
2018-01-02T18:17:38.888Z,72.96
2018-01-02T18:20:07.139Z,73.15
2018-01-02T18:22:35.415Z,73.53
2018-01-02T18:25:03.687Z,74.11
2018-01-02T18:27:31.967Z,74.31
2018-01-02T18:30:00.241Z,74.23
2018-01-02T18:32:28.506Z,74.51
2018-01-02T18:34:56.758Z,74.39
2018-01-02T18:37:25.039Z,74.00
2018-01-02T18:39:53.298Z,74.27
2018-01-02T18:42:21.619Z,73.96
2018-01-02T18:44:49.899Z,73.58
2018-01-02T18:47:18.174Z,73.63
2018-01-02T18:49:46.467Z,73.84
2018-01-02T18:52:14.751Z,73.49
2018-01-02T18:54:43.055Z,73.10
2018-01-02T18:57:11.324Z,72.59
2018-01-02T18:59:39.642Z,73.45
2018-01-02T19:02:07.912Z,73.11
2018-01-02T19:04:36.211Z,73.22
2018-01-02T19:07:05.519Z,73.05
2018-01-02T19:09:33.824Z,72.85
2018-01-02T19:12:02.038Z,72.72
2018-01-02T19:14:30.322Z,71.73
2018-01-02T19:16:58.590Z,72.22
2018-01-02T19:19:26.887Z,72.61
2018-01-02T19:21:55.146Z,72.51
2018-01-02T19:24:23.444Z,72.29
2018-01-02T19:26:51.720Z,72.03
2018-01-02T19:29:19.991Z,71.83
2018-01-02T19:31:49.088Z,71.50
2018-01-02T19:34:17.365Z,71.67
2018-01-02T19:36:45.644Z,71.87
2018-01-02T19:39:13.914Z,71.73
2018-01-02T19:41:42.217Z,72.21
2018-01-02T19:44:10.493Z,72.38
2018-01-02T19:46:38.770Z,73.29
2018-01-02T19:49:07.027Z,74.42
2018-01-02T19:51:35.335Z,74.78
2018-01-02T19:54:03.626Z,75.59
2018-01-02T19:56:31.879Z,75.87
2018-01-02T19:59:00.149Z,76.05
2018-01-02T20:01:28.428Z,75.98
2018-01-02T20:03:56.687Z,75.76
2018-01-02T20:06:26.185Z,75.71
2018-01-02T20:08:54.440Z,76.19
2018-01-02T20:11:22.699Z,76.54
2018-01-02T20:13:51.839Z,76.85
2018-01-02T20:16:20.114Z,77.63
2018-01-02T20:18:49.018Z,76.77
2018-01-02T20:21:17.301Z,77.00
2018-01-02T20:23:45.588Z,77.49
2018-01-02T20:26:13.847Z,77.76
2018-01-02T20:28:42.123Z,77.27
2018-01-02T20:31:10.384Z,77.56
2018-01-02T20:33:39.733Z,77.85
2018-01-02T20:36:08.031Z,77.81
2018-01-02T20:38:36.283Z,78.80
2018-01-02T20:41:04.601Z,78.01
2018-01-02T20:43:32.859Z,78.24
2018-01-02T20:46:01.811Z,78.41
2018-01-02T20:48:30.066Z,78.49
2018-01-02T20:50:58.423Z,78.31
2018-01-02T20:53:26.665Z,78.52
2018-01-02T20:55:55.415Z,78.76
2018-01-02T20:58:23.631Z,78.56
2018-01-02T21:00:51.921Z,79.03
2018-01-02T21:03:20.205Z,78.65
2018-01-02T21:05:48.510Z,79.03
2018-01-02T21:08:16.765Z,78.79
2018-01-02T21:10:45.048Z,79.80
2018-01-02T21:13:13.330Z,79.44
2018-01-02T21:15:41.604Z,79.34
2018-01-02T21:18:09.898Z,79.58
2018-01-02T21:20:38.180Z,79.31
2018-01-02T21:23:06.515Z,79.61
2018-01-02T21:25:34.719Z,79.92
2018-01-02T21:28:03.170Z,79.74
2018-01-02T21:30:31.392Z,79.88
2018-01-02T21:32:59.676Z,79.54
2018-01-02T21:35:27.921Z,79.76
2018-01-02T21:37:56.274Z,79.86
2018-01-02T21:40:24.495Z,80.27
2018-01-02T21:42:56.004Z,80.22
2018-01-02T21:45:24.260Z,79.79
2018-01-02T21:47:52.519Z,79.60
2018-01-02T21:50:20.796Z,79.95
2018-01-02T21:52:49.337Z,79.79
2018-01-02T21:55:17.628Z,79.51
2018-01-02T21:57:45.879Z,79.42
2018-01-02T22:00:14.205Z,79.59
2018-01-02T22:02:42.516Z,79.82
2018-01-02T22:05:10.821Z,80.55
2018-01-02T22:07:39.088Z,80.82
2018-01-02T22:10:07.346Z,80.84
2018-01-02T22:12:35.587Z,80.83
2018-01-02T22:15:03.889Z,80.84
2018-01-02T22:17:32.170Z,80.57
2018-01-02T22:20:00.437Z,80.67
2018-01-02T22:22:28.723Z,80.41
2018-01-02T22:24:56.997Z,80.93
2018-01-02T22:27:25.292Z,80.74
2018-01-02T22:29:53.578Z,80.44
2018-01-02T22:32:21.927Z,80.59
2018-01-02T22:34:50.193Z,80.59
2018-01-02T22:37:18.685Z,80.78
2018-01-02T22:39:46.923Z,81.12
2018-01-02T22:42:15.190Z,80.67
2018-01-02T22:44:43.463Z,80.64
2018-01-02T22:47:11.885Z,80.98
2018-01-02T22:49:40.167Z,80.92
2018-01-02T22:52:08.436Z,81.27
2018-01-02T22:54:36.682Z,81.32
2018-01-02T22:57:04.936Z,81.02
2018-01-02T22:59:33.226Z,81.41
2018-01-02T23:02:01.487Z,81.36
2018-01-02T23:04:29.780Z,81.65
2018-01-02T23:06:58.111Z,81.86
2018-01-02T23:09:26.473Z,82.09
2018-01-02T23:11:54.744Z,82.41
2018-01-02T23:14:22.986Z,82.59
2018-01-02T23:16:51.283Z,82.61
2018-01-02T23:19:19.526Z,82.59
2018-01-02T23:21:47.840Z,82.85
2018-01-02T23:24:16.112Z,82.73
2018-01-02T23:26:44.405Z,82.56
2018-01-02T23:29:12.650Z,82.40
2018-01-02T23:31:40.931Z,82.30
2018-01-02T23:34:09.228Z,82.22
2018-01-02T23:36:37.470Z,82.62
2018-01-02T23:39:05.742Z,82.68
2018-01-02T23:41:34.010Z,83.17
2018-01-02T23:44:02.273Z,83.50
2018-01-02T23:46:30.525Z,83.54
2018-01-02T23:48:58.890Z,83.50
2018-01-02T23:51:27.114Z,83.51
2018-01-02T23:53:55.413Z,83.53
2018-01-02T23:56:23.650Z,83.47
2018-01-02T23:58:51.926Z,83.47
